createdAt,value
2023-09-24T00:00:33.324Z,93
2023-09-24T00:01:32.147Z,93
2023-09-24T00:02:32.108Z,93
2023-09-24T00:03:32.274Z,93
2023-09-24T00:04:32.098Z,93
2023-09-24T00:05:32.125Z,93
2023-09-24T00:06:32.103Z,93
2023-09-24T00:07:32.113Z,93
2023-09-24T00:08:32.174Z,93
2023-09-24T00:09:32.080Z,93
2023-09-24T00:10:32.111Z,93
2023-09-24T00:11:32.265Z,93
2023-09-24T00:12:32.118Z,93
2023-09-24T00:13:32.217Z,93
2023-09-24T00:14:32.234Z,93
2023-09-24T00:15:32.101Z,93
2023-09-24T00:16:32.140Z,93
2023-09-24T00:17:32.295Z,93
2023-09-24T00:18:32.196Z,93
2023-09-24T00:19:32.089Z,93
2023-09-24T00:20:32.094Z,93
2023-09-24T00:21:32.086Z,94
2023-09-24T00:22:32.144Z,94
2023-09-24T00:23:32.144Z,94
2023-09-24T00:24:32.116Z,94
2023-09-24T00:25:32.101Z,94
2023-09-24T00:26:32.117Z,94
2023-09-24T00:27:32.110Z,94
2023-09-24T00:28:32.076Z,94
2023-09-24T00:29:32.133Z,94
2023-09-24T00:30:32.090Z,94
2023-09-24T00:31:32.141Z,94
2023-09-24T00:32:32.166Z,94
2023-09-24T00:33:32.276Z,94
2023-09-24T00:34:32.172Z,94
2023-09-24T00:35:32.111Z,94
2023-09-24T00:36:32.079Z,94
2023-09-24T00:37:32.061Z,94
2023-09-24T00:38:32.113Z,94
2023-09-24T00:39:32.098Z,94
2023-09-24T00:40:32.213Z,94
2023-09-24T00:41:32.205Z,94
2023-09-24T00:42:32.232Z,94
2023-09-24T00:43:32.267Z,94
2023-09-24T00:44:32.295Z,94
2023-09-24T00:45:32.228Z,94
2023-09-24T00:46:32.262Z,94
2023-09-24T00:47:32.352Z,94
2023-09-24T00:48:32.460Z,94
2023-09-24T00:49:32.269Z,94
2023-09-24T00:50:32.319Z,94
2023-09-24T00:51:32.256Z,94
2023-09-24T00:52:32.224Z,94
2023-09-24T00:53:32.258Z,94
2023-09-24T00:54:32.200Z,94
2023-09-24T00:55:32.277Z,94
2023-09-24T00:56:32.265Z,94
2023-09-24T00:57:32.233Z,94
2023-09-24T00:58:32.368Z,94
2023-09-24T00:59:32.210Z,94
2023-09-24T01:00:32.233Z,95
2023-09-24T01:01:32.264Z,95
2023-09-24T01:02:32.318Z,95
2023-09-24T01:03:32.302Z,94
2023-09-24T01:04:32.320Z,95
2023-09-24T01:05:32.322Z,95
2023-09-24T01:06:32.209Z,95
2023-09-24T01:07:32.264Z,95
2023-09-24T01:08:32.290Z,95
2023-09-24T01:09:32.100Z,95
2023-09-24T01:10:32.081Z,95
2023-09-24T01:11:32.192Z,95
2023-09-24T01:12:32.092Z,95
2023-09-24T01:13:32.096Z,95
2023-09-24T01:14:32.179Z,95
2023-09-24T01:15:32.133Z,95
2023-09-24T01:16:32.109Z,95
2023-09-24T01:17:32.195Z,95
2023-09-24T01:18:32.121Z,95
2023-09-24T01:19:32.098Z,95
2023-09-24T01:20:32.147Z,95
2023-09-24T01:21:32.156Z,95
2023-09-24T01:22:32.110Z,95
2023-09-24T01:23:32.171Z,95
2023-09-24T01:24:32.170Z,95
2023-09-24T01:25:32.151Z,95
2023-09-24T01:26:32.150Z,95
2023-09-24T01:27:32.090Z,95
2023-09-24T01:28:32.072Z,95
2023-09-24T01:29:32.101Z,95
2023-09-24T01:30:32.092Z,95
2023-09-24T01:31:32.128Z,95
2023-09-24T01:32:32.181Z,95
2023-09-24T01:33:32.203Z,95
2023-09-24T01:34:32.111Z,95
2023-09-24T01:35:32.126Z,95
2023-09-24T01:36:32.091Z,95
2023-09-24T01:37:32.096Z,95
2023-09-24T01:38:32.272Z,95
2023-09-24T01:39:32.094Z,95
2023-09-24T01:40:32.096Z,95
2023-09-24T01:41:32.261Z,95
2023-09-24T01:42:32.143Z,95
2023-09-24T01:43:32.082Z,95
2023-09-24T01:44:32.137Z,95
2023-09-24T01:45:32.070Z,95
2023-09-24T01:46:32.196Z,95
2023-09-24T01:47:32.164Z,95
2023-09-24T01:48:32.150Z,95
2023-09-24T01:49:32.071Z,95
2023-09-24T01:50:32.147Z,95
2023-09-24T01:51:32.163Z,95
2023-09-24T01:52:32.120Z,95
2023-09-24T01:53:32.113Z,95
2023-09-24T01:54:32.090Z,95
2023-09-24T01:55:32.092Z,95
2023-09-24T01:56:32.099Z,95
2023-09-24T01:57:32.150Z,95
2023-09-24T01:58:32.073Z,95
2023-09-24T01:59:32.088Z,95
2023-09-24T02:00:32.137Z,95
2023-09-24T02:01:32.072Z,95
2023-09-24T02:02:32.203Z,95
2023-09-24T02:03:32.205Z,95
2023-09-24T02:04:32.099Z,95
2023-09-24T02:05:32.115Z,95
2023-09-24T02:06:32.101Z,95
2023-09-24T02:07:32.090Z,95
2023-09-24T02:08:32.580Z,95
2023-09-24T02:09:32.085Z,95
2023-09-24T02:10:32.124Z,95
2023-09-24T02:11:32.118Z,96
2023-09-24T02:12:32.177Z,96
2023-09-24T02:13:32.072Z,96
2023-09-24T02:14:32.123Z,96
2023-09-24T02:15:32.093Z,96
2023-09-24T02:16:32.172Z,96
2023-09-24T02:17:32.198Z,96
2023-09-24T02:18:32.142Z,96
2023-09-24T02:19:32.078Z,96
2023-09-24T02:20:32.143Z,96
2023-09-24T02:21:32.088Z,96
2023-09-24T02:22:32.071Z,96
2023-09-24T02:23:32.177Z,96
2023-09-24T02:24:32.088Z,96
2023-09-24T02:25:32.073Z,96
2023-09-24T02:26:32.105Z,96
2023-09-24T02:27:32.089Z,96
2023-09-24T02:28:32.081Z,96
2023-09-24T02:29:32.169Z,96
2023-09-24T02:30:32.368Z,96
2023-09-24T02:31:32.208Z,96
2023-09-24T02:32:32.176Z,96
2023-09-24T02:33:32.236Z,96
2023-09-24T02:34:32.076Z,96
2023-09-24T02:35:32.110Z,96
2023-09-24T02:36:32.072Z,96
2023-09-24T02:37:32.085Z,96
2023-09-24T02:38:32.128Z,96
2023-09-24T02:39:32.163Z,96
2023-09-24T02:40:32.069Z,96
2023-09-24T02:41:32.118Z,96
2023-09-24T02:42:32.084Z,96
2023-09-24T02:43:32.121Z,96
2023-09-24T02:44:32.147Z,96
2023-09-24T02:45:32.141Z,96
2023-09-24T02:46:32.093Z,96
2023-09-24T02:47:32.126Z,96
2023-09-24T02:48:32.152Z,96
2023-09-24T02:49:32.050Z,96
2023-09-24T02:50:32.133Z,96
2023-09-24T02:51:32.072Z,96
2023-09-24T02:52:32.068Z,96
2023-09-24T02:53:32.082Z,96
2023-09-24T02:54:32.090Z,96
2023-09-24T02:55:32.113Z,96
2023-09-24T02:56:32.116Z,96
2023-09-24T02:57:32.086Z,96
2023-09-24T02:58:32.075Z,96
2023-09-24T02:59:32.101Z,96
2023-09-24T03:00:32.109Z,96
2023-09-24T03:01:32.120Z,96
2023-09-24T03:02:32.170Z,96
2023-09-24T03:03:32.264Z,96
2023-09-24T03:04:32.272Z,96
2023-09-24T03:05:32.105Z,96
2023-09-24T03:06:32.080Z,96
2023-09-24T03:07:32.067Z,96
2023-09-24T03:08:32.053Z,96
2023-09-24T03:09:32.055Z,96
2023-09-24T03:10:32.257Z,96
2023-09-24T03:11:32.205Z,96
2023-09-24T03:12:32.204Z,96
2023-09-24T03:13:32.062Z,96
2023-09-24T03:14:32.241Z,96
2023-09-24T03:15:32.261Z,96
2023-09-24T03:16:32.111Z,96
2023-09-24T03:17:32.360Z,96
2023-09-24T03:18:32.263Z,96
2023-09-24T03:19:32.183Z,96
2023-09-24T03:20:32.142Z,96
2023-09-24T03:21:32.078Z,96
2023-09-24T03:22:32.429Z,96
2023-09-24T03:23:32.237Z,96
2023-09-24T03:24:32.071Z,96
2023-09-24T03:25:32.220Z,96
2023-09-24T03:26:32.291Z,96
2023-09-24T03:27:32.064Z,96
2023-09-24T03:28:32.096Z,96
2023-09-24T03:29:32.114Z,96
2023-09-24T03:30:32.430Z,96
2023-09-24T03:31:32.126Z,96
2023-09-24T03:32:32.792Z,96
2023-09-24T03:33:32.333Z,96
2023-09-24T03:34:32.255Z,96
2023-09-24T03:35:32.079Z,96
2023-09-24T03:36:32.233Z,96
2023-09-24T03:37:32.061Z,96
2023-09-24T03:38:32.290Z,96
2023-09-24T03:39:32.268Z,96
2023-09-24T03:40:32.127Z,96
2023-09-24T03:41:32.292Z,96
2023-09-24T03:42:32.718Z,96
2023-09-24T03:43:32.133Z,96
2023-09-24T03:44:32.202Z,96
2023-09-24T03:45:32.107Z,96
2023-09-24T03:46:32.247Z,96
2023-09-24T03:47:32.240Z,96
2023-09-24T03:48:32.348Z,96
2023-09-24T03:49:32.263Z,96
2023-09-24T03:50:32.163Z,96
2023-09-24T03:51:32.197Z,96
2023-09-24T03:52:32.108Z,96
2023-09-24T03:53:32.088Z,96
2023-09-24T03:54:32.117Z,96
2023-09-24T03:55:32.078Z,96
2023-09-24T03:56:32.122Z,96
2023-09-24T03:57:32.067Z,96
2023-09-24T03:58:32.070Z,96
2023-09-24T03:59:32.060Z,96
2023-09-24T04:00:32.091Z,96
2023-09-24T04:01:32.119Z,96
2023-09-24T04:02:32.178Z,96
2023-09-24T04:03:32.273Z,96
2023-09-24T04:04:32.128Z,96
2023-09-24T04:05:32.134Z,96
2023-09-24T04:06:32.089Z,96
2023-09-24T04:07:32.069Z,96
2023-09-24T04:08:32.094Z,96
2023-09-24T04:09:32.049Z,96
2023-09-24T04:10:32.084Z,96
2023-09-24T04:11:32.173Z,96
2023-09-24T04:12:32.106Z,96
2023-09-24T04:13:32.050Z,96
2023-09-24T04:14:32.094Z,96
2023-09-24T04:15:32.130Z,96
2023-09-24T04:16:32.136Z,96
2023-09-24T04:17:32.131Z,96
2023-09-24T04:18:32.170Z,96
2023-09-24T04:19:32.087Z,96
2023-09-24T04:20:32.073Z,96
2023-09-24T04:21:32.074Z,96
2023-09-24T04:22:32.391Z,96
2023-09-24T04:23:32.109Z,96
2023-09-24T04:24:32.058Z,96
2023-09-24T04:25:32.114Z,96
2023-09-24T04:26:32.127Z,95
2023-09-24T04:27:32.073Z,95
2023-09-24T04:28:32.086Z,95
2023-09-24T04:29:32.096Z,95
2023-09-24T04:30:32.092Z,95
2023-09-24T04:31:32.084Z,95
2023-09-24T04:32:32.226Z,95
2023-09-24T04:33:32.131Z,95
2023-09-24T04:34:32.127Z,95
2023-09-24T04:35:32.112Z,95
2023-09-24T04:36:32.062Z,95
2023-09-24T04:37:32.061Z,95
2023-09-24T04:38:32.112Z,95
2023-09-24T04:39:32.070Z,95
2023-09-24T04:40:32.063Z,95
2023-09-24T04:41:32.075Z,95
2023-09-24T04:42:32.070Z,95
2023-09-24T04:43:32.071Z,95
2023-09-24T04:44:32.083Z,95
2023-09-24T04:45:32.111Z,95
2023-09-24T04:46:32.080Z,95
2023-09-24T04:47:32.211Z,95
2023-09-24T04:48:32.222Z,95
2023-09-24T04:49:32.116Z,94
2023-09-24T04:50:32.098Z,94
2023-09-24T04:51:32.096Z,94
2023-09-24T04:52:33.004Z,94
2023-09-24T04:53:32.095Z,94
2023-09-24T04:54:32.080Z,94
2023-09-24T04:55:32.062Z,94
2023-09-24T04:56:32.109Z,94
2023-09-24T04:57:32.066Z,94
2023-09-24T04:58:32.101Z,94
2023-09-24T04:59:32.134Z,94
2023-09-24T05:00:32.032Z,94
2023-09-24T05:01:32.129Z,94
2023-09-24T05:02:32.166Z,94
2023-09-24T05:03:32.205Z,94
2023-09-24T05:04:32.354Z,94
2023-09-24T05:05:32.384Z,94
2023-09-24T05:06:32.069Z,94
2023-09-24T05:07:32.320Z,94
2023-09-24T05:08:32.079Z,94
2023-09-24T05:09:32.090Z,94
2023-09-24T05:10:32.048Z,94
2023-09-24T05:11:32.132Z,94
2023-09-24T05:12:32.377Z,94
2023-09-24T05:13:32.065Z,94
2023-09-24T05:14:32.058Z,93
2023-09-24T05:15:32.081Z,93
2023-09-24T05:16:32.143Z,93
2023-09-24T05:17:32.184Z,93
2023-09-24T05:18:32.164Z,93
2023-09-24T05:19:32.059Z,93
2023-09-24T05:20:32.099Z,93
2023-09-24T05:21:32.068Z,93
2023-09-24T05:22:32.916Z,93
2023-09-24T05:23:32.087Z,93
2023-09-24T05:24:32.050Z,93
2023-09-24T05:25:32.048Z,93
2023-09-24T05:26:32.108Z,93
2023-09-24T05:27:32.110Z,93
2023-09-24T05:28:32.062Z,93
2023-09-24T05:29:32.083Z,93
2023-09-24T05:30:32.167Z,93
2023-09-24T05:31:32.151Z,93
2023-09-24T05:32:32.181Z,93
2023-09-24T05:33:32.174Z,93
2023-09-24T05:34:32.075Z,93
2023-09-24T05:35:32.101Z,93
2023-09-24T05:36:32.046Z,92
2023-09-24T05:37:32.111Z,92
2023-09-24T05:38:32.130Z,92
2023-09-24T05:39:32.123Z,92
2023-09-24T05:40:32.031Z,92
2023-09-24T05:41:32.068Z,92
2023-09-24T05:42:32.999Z,92
2023-09-24T05:43:32.118Z,92
2023-09-24T05:44:32.102Z,92
2023-09-24T05:45:32.064Z,92
2023-09-24T05:46:32.129Z,92
2023-09-24T05:47:32.252Z,92
2023-09-24T05:48:32.102Z,92
2023-09-24T05:49:32.067Z,91
2023-09-24T05:50:32.097Z,91
2023-09-24T05:51:32.073Z,91
2023-09-24T05:52:32.056Z,91
2023-09-24T05:53:32.093Z,91
2023-09-24T05:54:32.073Z,91
2023-09-24T05:55:32.036Z,91
2023-09-24T05:56:32.101Z,91
2023-09-24T05:57:32.121Z,90
2023-09-24T05:58:32.096Z,90
2023-09-24T05:59:32.116Z,90
2023-09-24T06:00:32.146Z,90
2023-09-24T06:01:32.113Z,90
2023-09-24T06:02:32.150Z,90
2023-09-24T06:03:32.195Z,89
2023-09-24T06:04:32.223Z,89
2023-09-24T06:05:32.160Z,89
2023-09-24T06:06:32.077Z,89
2023-09-24T06:07:32.081Z,89
2023-09-24T06:08:32.138Z,89
2023-09-24T06:09:32.078Z,89
2023-09-24T06:10:32.104Z,89
2023-09-24T06:11:32.098Z,89
2023-09-24T06:12:32.077Z,88
2023-09-24T06:13:32.070Z,88
2023-09-24T06:14:32.086Z,88
2023-09-24T06:15:32.052Z,88
2023-09-24T06:16:32.096Z,88
2023-09-24T06:17:32.138Z,88
2023-09-24T06:18:32.169Z,88
2023-09-24T06:19:32.078Z,88
2023-09-24T06:20:32.116Z,88
2023-09-24T06:21:32.105Z,88
2023-09-24T06:22:33.185Z,88
2023-09-24T06:23:32.159Z,88
2023-09-24T06:24:32.061Z,88
2023-09-24T06:25:32.051Z,88
2023-09-24T06:26:32.302Z,88
2023-09-24T06:27:32.079Z,87
2023-09-24T06:28:32.052Z,87
2023-09-24T06:29:32.107Z,87
2023-09-24T06:30:32.060Z,87
2023-09-24T06:31:32.105Z,87
2023-09-24T06:32:32.522Z,87
2023-09-24T06:33:32.304Z,87
2023-09-24T06:34:32.069Z,87
2023-09-24T06:35:32.102Z,87
2023-09-24T06:36:32.047Z,87
2023-09-24T06:37:32.107Z,87
2023-09-24T06:38:32.204Z,87
2023-09-24T06:39:32.065Z,86
2023-09-24T06:40:32.059Z,86
2023-09-24T06:41:32.141Z,86
2023-09-24T06:42:32.078Z,86
2023-09-24T06:43:32.085Z,86
2023-09-24T06:44:32.091Z,86
2023-09-24T06:45:32.084Z,86
2023-09-24T06:46:32.089Z,86
2023-09-24T06:47:32.093Z,86
2023-09-24T06:48:32.144Z,86
2023-09-24T06:49:32.052Z,86
2023-09-24T06:50:32.101Z,86
2023-09-24T06:51:32.052Z,86
2023-09-24T06:52:32.635Z,86
2023-09-24T06:53:32.060Z,86
2023-09-24T06:54:32.080Z,85
2023-09-24T06:55:32.053Z,85
2023-09-24T06:56:32.125Z,85
2023-09-24T06:57:32.073Z,85
2023-09-24T06:58:32.070Z,85
2023-09-24T06:59:32.122Z,85
2023-09-24T07:00:32.066Z,85
2023-09-24T07:01:32.107Z,85
2023-09-24T07:02:33.202Z,85
2023-09-24T07:03:32.191Z,85
2023-09-24T07:04:32.125Z,85
2023-09-24T07:05:32.073Z,85
2023-09-24T07:06:32.117Z,85
2023-09-24T07:07:32.067Z,84
2023-09-24T07:08:32.096Z,85
2023-09-24T07:09:32.083Z,84
2023-09-24T07:10:32.052Z,84
2023-09-24T07:11:32.170Z,84
2023-09-24T07:12:32.831Z,83
2023-09-24T07:13:32.068Z,83
2023-09-24T07:14:32.125Z,82
2023-09-24T07:15:32.047Z,82
2023-09-24T07:16:32.085Z,82
2023-09-24T07:17:32.175Z,82
2023-09-24T07:18:32.111Z,82
2023-09-24T07:19:32.055Z,81
2023-09-24T07:20:32.047Z,81
2023-09-24T07:21:36.145Z,81
2023-09-24T07:22:32.505Z,81
2023-09-24T07:23:32.106Z,81
2023-09-24T07:24:32.054Z,81
2023-09-24T07:25:32.053Z,81
2023-09-24T07:26:32.238Z,81
2023-09-24T07:27:32.124Z,81
2023-09-24T07:28:32.060Z,80
2023-09-24T07:29:32.130Z,80
2023-09-24T07:30:32.044Z,79
2023-09-24T07:31:32.672Z,80
2023-09-24T07:32:32.209Z,78
2023-09-24T07:33:32.148Z,79
2023-09-24T07:34:32.057Z,79
2023-09-24T07:35:32.108Z,79
2023-09-24T07:36:38.521Z,79
2023-09-24T07:37:32.076Z,78
2023-09-24T07:38:32.100Z,77
2023-09-24T07:39:32.072Z,77
2023-09-24T07:40:32.073Z,77
2023-09-24T07:41:32.123Z,77
2023-09-24T07:42:32.587Z,76
2023-09-24T07:43:32.078Z,77
2023-09-24T07:44:32.094Z,77
2023-09-24T07:45:32.110Z,78
2023-09-24T07:46:32.054Z,78
2023-09-24T07:47:32.143Z,77
2023-09-24T07:48:32.140Z,77
2023-09-24T07:49:32.054Z,77
2023-09-24T07:50:32.066Z,77
2023-09-24T07:51:32.046Z,77
2023-09-24T07:52:32.041Z,77
2023-09-24T07:53:32.066Z,77
2023-09-24T07:54:32.043Z,77
2023-09-24T07:55:32.073Z,77
2023-09-24T07:56:32.226Z,77
2023-09-24T07:57:32.100Z,77
2023-09-24T07:58:32.077Z,78
2023-09-24T07:59:32.073Z,78
2023-09-24T08:00:32.083Z,78
2023-09-24T08:01:32.163Z,78
2023-09-24T08:02:32.170Z,78
2023-09-24T08:03:32.164Z,78
2023-09-24T08:04:32.033Z,77
2023-09-24T08:05:32.146Z,76
2023-09-24T08:06:32.051Z,75
2023-09-24T08:07:32.042Z,75
2023-09-24T08:08:47.928Z,75
2023-09-24T08:09:32.159Z,75
2023-09-24T08:10:32.062Z,75
2023-09-24T08:11:32.103Z,75
2023-09-24T08:12:32.994Z,75
2023-09-24T08:13:32.102Z,76
2023-09-24T08:14:32.061Z,76
2023-09-24T08:15:34.283Z,75
2023-09-24T08:16:32.173Z,75
2023-09-24T08:17:32.117Z,74
2023-09-24T08:18:32.153Z,75
2023-09-24T08:19:32.146Z,74
2023-09-24T08:20:32.164Z,73
2023-09-24T08:21:32.043Z,72
2023-09-24T08:22:32.142Z,73
2023-09-24T08:23:32.067Z,73
2023-09-24T08:24:32.056Z,73
2023-09-24T08:25:32.064Z,73
2023-09-24T08:26:32.067Z,73
2023-09-24T08:27:32.033Z,72
2023-09-24T08:28:32.050Z,72
2023-09-24T08:29:32.054Z,72
2023-09-24T08:30:32.063Z,72
2023-09-24T08:31:32.119Z,72
2023-09-24T08:32:32.156Z,71
2023-09-24T08:33:32.117Z,71
2023-09-24T08:34:32.057Z,71
2023-09-24T08:35:32.066Z,71
2023-09-24T08:36:32.045Z,70
2023-09-24T08:37:32.074Z,70
2023-09-24T08:38:32.047Z,70
2023-09-24T08:39:32.070Z,70
2023-09-24T08:40:32.038Z,70
2023-09-24T08:41:32.063Z,71
2023-09-24T08:42:32.352Z,71
2023-09-24T08:43:32.052Z,71
2023-09-24T08:44:32.020Z,70
2023-09-24T08:45:32.034Z,70
2023-09-24T08:46:32.107Z,70
2023-09-24T08:47:32.103Z,70
2023-09-24T08:48:32.143Z,69
2023-09-24T08:49:32.065Z,70
2023-09-24T08:50:32.050Z,69
2023-09-24T08:51:32.131Z,69
2023-09-24T08:52:32.051Z,69
2023-09-24T08:53:32.049Z,69
2023-09-24T08:54:32.063Z,70
2023-09-24T08:55:32.045Z,70
2023-09-24T08:56:32.053Z,69
2023-09-24T08:57:32.066Z,69
2023-09-24T08:58:32.057Z,69
2023-09-24T08:59:32.041Z,69
2023-09-24T09:00:32.040Z,69
2023-09-24T09:01:32.128Z,69
2023-09-24T09:02:32.122Z,69
2023-09-24T09:03:32.153Z,69
2023-09-24T09:04:32.048Z,69
2023-09-24T09:05:32.100Z,69
2023-09-24T09:06:32.065Z,69
2023-09-24T09:07:32.058Z,69
2023-09-24T09:08:32.057Z,69
2023-09-24T09:09:32.031Z,69
2023-09-24T09:10:32.062Z,68
2023-09-24T09:11:32.079Z,69
2023-09-24T09:12:32.038Z,68
2023-09-24T09:13:32.077Z,68
2023-09-24T09:14:32.059Z,67
2023-09-24T09:15:32.058Z,67
2023-09-24T09:16:32.071Z,67
2023-09-24T09:17:32.047Z,67
2023-09-24T09:18:32.105Z,68
2023-09-24T09:19:32.107Z,67
2023-09-24T09:20:32.071Z,66
2023-09-24T09:21:32.046Z,67
2023-09-24T09:22:33.072Z,67
2023-09-24T09:23:32.146Z,67
2023-09-24T09:24:32.062Z,66
2023-09-24T09:25:32.040Z,66
2023-09-24T09:26:32.057Z,66
2023-09-24T09:27:32.076Z,67
2023-09-24T09:28:32.055Z,66
2023-09-24T09:29:32.042Z,67
2023-09-24T09:30:32.034Z,66
2023-09-24T09:31:32.062Z,66
2023-09-24T09:32:32.092Z,66
2023-09-24T09:33:32.170Z,65
2023-09-24T09:34:32.047Z,66
2023-09-24T09:35:32.035Z,65
2023-09-24T09:36:32.085Z,65
2023-09-24T09:37:34.637Z,65
2023-09-24T09:38:32.096Z,66
2023-09-24T09:39:32.054Z,66
2023-09-24T09:40:32.112Z,66
2023-09-24T09:41:32.048Z,66
2023-09-24T09:42:32.468Z,66
2023-09-24T09:43:32.077Z,66
2023-09-24T09:44:32.061Z,66
2023-09-24T09:45:32.037Z,66
2023-09-24T09:46:32.186Z,66
2023-09-24T09:47:32.092Z,66
2023-09-24T09:48:32.189Z,65
2023-09-24T09:49:32.070Z,65
2023-09-24T09:50:32.055Z,65
2023-09-24T09:51:33.943Z,65
2023-09-24T09:52:32.976Z,65
2023-09-24T09:53:32.253Z,65
2023-09-24T09:54:32.165Z,65
2023-09-24T09:55:32.058Z,66
2023-09-24T09:56:32.037Z,65
2023-09-24T09:57:32.073Z,65
2023-09-24T09:58:32.062Z,65
2023-09-24T09:59:32.068Z,64
2023-09-24T10:00:32.078Z,66
2023-09-24T10:01:32.077Z,65
2023-09-24T10:02:32.170Z,65
2023-09-24T10:03:32.099Z,64
2023-09-24T10:04:32.810Z,63
2023-09-24T10:05:32.087Z,63
2023-09-24T10:06:32.065Z,64
2023-09-24T10:07:32.054Z,64
2023-09-24T10:08:32.019Z,63
2023-09-24T10:09:32.036Z,63
2023-09-24T10:10:32.110Z,63
2023-09-24T10:11:32.130Z,63
2023-09-24T10:12:32.169Z,62
2023-09-24T10:13:32.044Z,63
2023-09-24T10:14:32.046Z,63
2023-09-24T10:15:32.065Z,64
2023-09-24T10:16:32.071Z,63
2023-09-24T10:17:32.098Z,64
2023-09-24T10:18:32.159Z,64
2023-09-24T10:19:32.020Z,64
2023-09-24T10:20:32.053Z,63
2023-09-24T10:21:32.060Z,64
2023-09-24T10:22:32.078Z,64
2023-09-24T10:23:32.056Z,64
2023-09-24T10:24:32.010Z,64
2023-09-24T10:25:31.990Z,64
2023-09-24T10:26:32.046Z,64
2023-09-24T10:27:32.120Z,64
2023-09-24T10:28:32.184Z,64
2023-09-24T10:29:32.031Z,63
2023-09-24T10:30:32.039Z,63
2023-09-24T10:31:32.041Z,63
2023-09-24T10:32:32.218Z,62
2023-09-24T10:33:32.165Z,62
2023-09-24T10:34:32.061Z,62
2023-09-24T10:35:32.070Z,62
2023-09-24T10:36:32.049Z,62
2023-09-24T10:37:32.088Z,62
2023-09-24T10:38:32.055Z,63
2023-09-24T10:39:32.012Z,63
2023-09-24T10:40:32.095Z,63
2023-09-24T10:41:32.033Z,63
2023-09-24T10:42:33.247Z,62
2023-09-24T10:43:32.043Z,62
2023-09-24T10:44:32.063Z,62
2023-09-24T10:45:32.015Z,62
2023-09-24T10:46:32.149Z,62
2023-09-24T10:47:32.175Z,62
2023-09-24T10:49:32.106Z,60
2023-09-24T10:50:32.041Z,60
2023-09-24T10:51:32.038Z,60
2023-09-24T10:52:32.018Z,60
2023-09-24T10:53:32.156Z,61
2023-09-24T10:54:32.092Z,61
2023-09-24T10:55:32.065Z,61
2023-09-24T10:56:32.013Z,62
2023-09-24T10:57:32.049Z,61
2023-09-24T10:58:32.027Z,61
2023-09-24T10:59:32.041Z,62
2023-09-24T11:00:32.149Z,63
2023-09-24T11:01:32.104Z,63
2023-09-24T11:02:32.610Z,63
2023-09-24T11:03:32.270Z,63
2023-09-24T11:04:32.039Z,63
2023-09-24T11:05:32.051Z,62
2023-09-24T11:06:32.076Z,61
2023-09-24T11:07:32.047Z,61
2023-09-24T11:08:32.059Z,60
2023-09-24T11:09:32.054Z,60
2023-09-24T11:10:32.114Z,60
2023-09-24T11:11:32.033Z,60
2023-09-24T11:12:33.101Z,60
2023-09-24T11:13:32.058Z,59
2023-09-24T11:14:32.066Z,58
2023-09-24T11:15:32.104Z,59
2023-09-24T11:16:32.018Z,59
2023-09-24T11:17:32.126Z,59
2023-09-24T11:18:32.170Z,59
2023-09-24T11:19:32.069Z,59
2023-09-24T11:20:32.097Z,59
2023-09-24T11:21:32.078Z,58
2023-09-24T11:22:32.060Z,58
2023-09-24T11:23:32.049Z,58
2023-09-24T11:24:32.077Z,58
2023-09-24T11:25:32.154Z,57
2023-09-24T11:26:32.075Z,57
2023-09-24T11:27:32.033Z,58
2023-09-24T11:28:32.227Z,59
2023-09-24T11:29:32.054Z,59
2023-09-24T11:30:32.035Z,58
2023-09-24T11:31:32.068Z,59
2023-09-24T11:32:35.799Z,59
2023-09-24T11:33:32.120Z,59
2023-09-24T11:34:32.049Z,58
2023-09-24T11:35:32.062Z,57
2023-09-24T11:36:32.041Z,56
2023-09-24T11:37:32.049Z,56
2023-09-24T11:38:32.071Z,57
2023-09-24T11:39:32.021Z,57
2023-09-24T11:40:32.029Z,57
2023-09-24T11:41:32.047Z,57
2023-09-24T11:42:32.043Z,57
2023-09-24T11:43:32.034Z,58
2023-09-24T11:44:32.014Z,57
2023-09-24T11:45:32.056Z,57
2023-09-24T11:46:32.105Z,56
2023-09-24T11:47:32.073Z,56
2023-09-24T11:48:32.097Z,56
2023-09-24T11:49:32.009Z,55
2023-09-24T11:50:32.034Z,55
2023-09-24T11:51:32.059Z,55
2023-09-24T11:52:33.027Z,55
2023-09-24T11:53:32.036Z,55
2023-09-24T11:54:32.030Z,56
2023-09-24T11:55:32.096Z,56
2023-09-24T11:56:32.032Z,56
2023-09-24T11:57:32.015Z,55
2023-09-24T11:58:32.066Z,56
2023-09-24T11:59:32.147Z,56
2023-09-24T12:00:32.088Z,54
2023-09-24T12:01:34.141Z,54
2023-09-24T12:02:32.051Z,53
2023-09-24T12:03:32.179Z,53
2023-09-24T12:04:32.090Z,53
2023-09-24T12:05:34.008Z,54
2023-09-24T12:06:31.998Z,54
2023-09-24T12:07:32.142Z,55
2023-09-24T12:08:32.026Z,55
2023-09-24T12:09:32.142Z,55
2023-09-24T12:10:32.054Z,54
2023-09-24T12:11:32.022Z,54
2023-09-24T12:12:33.141Z,53
2023-09-24T12:13:32.087Z,53
2023-09-24T12:14:32.010Z,54
2023-09-24T12:15:32.063Z,53
2023-09-24T12:16:32.079Z,53
2023-09-24T12:17:32.099Z,54
2023-09-24T12:18:32.109Z,53
2023-09-24T12:19:32.108Z,53
2023-09-24T12:20:32.059Z,53
2023-09-24T12:21:32.015Z,54
2023-09-24T12:22:32.025Z,53
2023-09-24T12:23:32.029Z,53
2023-09-24T12:24:32.036Z,53
2023-09-24T12:25:32.055Z,53
2023-09-24T12:26:32.020Z,53
2023-09-24T12:27:32.048Z,52
2023-09-24T12:28:32.047Z,53
2023-09-24T12:29:32.050Z,54
2023-09-24T12:30:32.015Z,52
2023-09-24T12:31:32.113Z,52
2023-09-24T12:32:32.614Z,51
2023-09-24T12:33:32.076Z,50
2023-09-24T12:34:32.002Z,49
2023-09-24T12:35:32.049Z,48
2023-09-24T12:36:32.037Z,48
2023-09-24T12:37:32.051Z,48
2023-09-24T12:38:31.981Z,48
2023-09-24T12:39:32.075Z,48
2023-09-24T12:40:32.031Z,48
2023-09-24T12:41:32.030Z,49
2023-09-24T12:42:32.039Z,48
2023-09-24T12:43:32.027Z,48
2023-09-24T12:44:32.009Z,48
2023-09-24T12:45:32.028Z,47
2023-09-24T12:46:32.054Z,47
2023-09-24T12:47:32.106Z,47
2023-09-24T12:48:32.121Z,46
2023-09-24T12:49:32.047Z,46
2023-09-24T12:50:32.040Z,46
2023-09-24T12:51:32.043Z,46
2023-09-24T12:52:32.657Z,46
2023-09-24T12:53:32.026Z,47
2023-09-24T12:54:32.016Z,46
2023-09-24T12:55:31.977Z,46
2023-09-24T12:56:32.146Z,46
2023-09-24T12:57:32.053Z,47
2023-09-24T12:58:32.048Z,46
2023-09-24T12:59:32.050Z,46
2023-09-24T13:00:32.074Z,46
2023-09-24T13:01:32.011Z,47
2023-09-24T13:02:32.449Z,47
2023-09-24T13:03:32.181Z,47
2023-09-24T13:04:32.216Z,48
2023-09-24T13:05:32.031Z,47
2023-09-24T13:06:32.040Z,48
2023-09-24T13:07:32.064Z,48
2023-09-24T13:08:32.022Z,48
2023-09-24T13:09:32.048Z,48
2023-09-24T13:10:32.016Z,49
2023-09-24T13:11:32.095Z,49
2023-09-24T13:12:32.041Z,49
2023-09-24T13:13:32.042Z,48
2023-09-24T13:14:32.108Z,48
2023-09-24T13:15:32.190Z,48
2023-09-24T13:16:32.090Z,48
2023-09-24T13:17:32.022Z,48
2023-09-24T13:18:32.157Z,49
2023-09-24T13:19:32.009Z,49
2023-09-24T13:20:32.086Z,49
2023-09-24T13:21:32.022Z,49
2023-09-24T13:22:32.016Z,49
2023-09-24T13:23:32.061Z,49
2023-09-24T13:24:32.027Z,49
2023-09-24T13:25:32.031Z,49
2023-09-24T13:26:32.033Z,49
2023-09-24T13:27:33.704Z,50
2023-09-24T13:28:32.012Z,50
2023-09-24T13:29:32.005Z,50
2023-09-24T13:30:32.082Z,50
2023-09-24T13:31:32.071Z,50
2023-09-24T13:32:32.297Z,49
2023-09-24T13:33:32.101Z,50
2023-09-24T13:34:32.087Z,50
2023-09-24T13:35:32.037Z,50
2023-09-24T13:36:32.030Z,49
2023-09-24T13:37:32.032Z,49
2023-09-24T13:38:32.032Z,50
2023-09-24T13:39:32.028Z,50
2023-09-24T13:40:37.941Z,49
2023-09-24T13:41:32.004Z,49
2023-09-24T13:42:32.019Z,49
2023-09-24T13:43:32.008Z,49
2023-09-24T13:44:32.023Z,49
2023-09-24T13:45:32.054Z,50
2023-09-24T13:46:32.141Z,50
2023-09-24T13:47:32.111Z,50
2023-09-24T13:48:32.124Z,49
2023-09-24T13:49:32.006Z,50
2023-09-24T13:50:32.028Z,50
2023-09-24T13:51:32.041Z,49
2023-09-24T13:52:32.027Z,49
2023-09-24T13:53:32.218Z,48
2023-09-24T13:54:32.010Z,49
2023-09-24T13:55:32.040Z,50
2023-09-24T13:56:32.022Z,49
2023-09-24T13:57:32.056Z,50
2023-09-24T13:58:32.023Z,49
2023-09-24T13:59:32.028Z,49
2023-09-24T14:00:32.092Z,49
2023-09-24T14:01:32.074Z,49
2023-09-24T14:02:33.234Z,49
2023-09-24T14:03:32.084Z,49
2023-09-24T14:04:32.070Z,50
2023-09-24T14:05:31.996Z,49
2023-09-24T14:06:32.026Z,47
2023-09-24T14:07:32.079Z,48
2023-09-24T14:08:32.028Z,49
2023-09-24T14:09:32.051Z,49
2023-09-24T14:10:32.027Z,49
2023-09-24T14:11:35.564Z,49
2023-09-24T14:12:32.056Z,48
2023-09-24T14:13:32.241Z,48
2023-09-24T14:14:32.025Z,48
2023-09-24T14:15:32.121Z,49
2023-09-24T14:16:32.091Z,49